createdAt,value
2017-12-24T00:00:46.743Z,83.40
2017-12-24T00:03:14.938Z,83.50
2017-12-24T00:05:42.410Z,83.50
2017-12-24T00:08:10.863Z,83.70
2017-12-24T00:10:38.371Z,83.20
2017-12-24T00:13:05.837Z,84.10
2017-12-24T00:15:33.740Z,83.20
2017-12-24T00:18:01.185Z,83.40
2017-12-24T00:20:28.790Z,83.50
2017-12-24T00:22:57.101Z,84.70
2017-12-24T00:25:25.000Z,83.50
2017-12-24T00:27:52.970Z,83.40
2017-12-24T00:30:21.119Z,83.60
2017-12-24T00:32:48.611Z,83.40
2017-12-24T00:35:16.847Z,84.30
2017-12-24T00:37:44.400Z,83.90
2017-12-24T00:40:11.841Z,83.90
2017-12-24T00:42:39.416Z,84.00
2017-12-24T00:45:06.955Z,84.00
2017-12-24T00:47:34.677Z,84.10
2017-12-24T00:50:02.126Z,84.40
2017-12-24T00:52:29.561Z,84.50
2017-12-24T00:54:57.963Z,84.50
2017-12-24T00:57:25.434Z,84.70
2017-12-24T00:59:52.950Z,85.00
2017-12-24T01:02:20.403Z,85.10
2017-12-24T01:04:48.109Z,85.20
2017-12-24T01:07:15.602Z,85.20
2017-12-24T01:09:42.996Z,85.40
2017-12-24T01:12:10.500Z,85.50
2017-12-24T01:14:39.357Z,85.80
2017-12-24T01:17:06.824Z,85.10
2017-12-24T01:19:34.274Z,85.20
2017-12-24T01:22:01.757Z,85.20
2017-12-24T01:24:30.475Z,85.70
2017-12-24T01:26:58.210Z,85.20
2017-12-24T01:29:27.007Z,85.40
2017-12-24T01:31:54.583Z,84.70
2017-12-24T01:34:22.017Z,84.80
2017-12-24T01:36:49.466Z,84.90
2017-12-24T01:39:17.801Z,85.30
2017-12-24T01:41:45.269Z,84.80
2017-12-24T01:44:13.120Z,84.80
2017-12-24T01:46:40.592Z,84.70
2017-12-24T01:49:08.257Z,84.60
2017-12-24T01:51:35.714Z,84.40
2017-12-24T01:54:03.175Z,84.00
2017-12-24T01:56:30.728Z,83.50
2017-12-24T01:58:58.179Z,83.60
2017-12-24T02:01:26.471Z,83.70
2017-12-24T02:03:54.341Z,83.60
2017-12-24T02:06:22.560Z,84.50
2017-12-24T02:08:50.136Z,83.60
2017-12-24T02:11:17.617Z,83.60
2017-12-24T02:13:45.681Z,83.60
2017-12-24T02:16:13.121Z,83.40
2017-12-24T02:18:40.597Z,83.50
2017-12-24T02:21:08.047Z,83.30
2017-12-24T02:23:35.496Z,83.10
2017-12-24T02:26:03.669Z,82.50
2017-12-24T02:28:31.137Z,83.40
2017-12-24T02:31:00.551Z,84.20
2017-12-24T02:33:27.999Z,83.50
2017-12-24T02:35:56.249Z,84.10
2017-12-24T02:38:23.712Z,83.50
2017-12-24T02:40:51.169Z,83.60
2017-12-24T02:43:18.631Z,83.80
2017-12-24T02:45:46.079Z,83.70
2017-12-24T02:48:13.868Z,83.90
2017-12-24T02:50:41.308Z,83.80
2017-12-24T02:53:08.937Z,83.90
2017-12-24T02:55:36.386Z,83.80
2017-12-24T02:58:04.236Z,83.80
2017-12-24T03:00:32.380Z,83.80
2017-12-24T03:02:59.812Z,83.80
2017-12-24T03:05:27.291Z,83.90
2017-12-24T03:07:54.799Z,84.10
2017-12-24T03:10:22.382Z,84.10
2017-12-24T03:12:49.829Z,83.90
2017-12-24T03:15:17.712Z,84.20
2017-12-24T03:17:45.992Z,84.10
2017-12-24T03:20:13.863Z,84.20
2017-12-24T03:22:41.313Z,84.30
2017-12-24T03:25:09.348Z,84.40
2017-12-24T03:27:37.260Z,84.50
2017-12-24T03:30:05.326Z,84.60
2017-12-24T03:32:32.792Z,84.60
2017-12-24T03:35:00.241Z,84.80
2017-12-24T03:37:27.723Z,84.70
2017-12-24T03:39:55.932Z,85.30
2017-12-24T03:42:23.694Z,84.40
2017-12-24T03:44:51.149Z,84.80
2017-12-24T03:47:19.217Z,84.80
2017-12-24T03:49:46.689Z,84.70
2017-12-24T03:52:14.684Z,84.60
2017-12-24T03:54:42.155Z,84.70
2017-12-24T03:57:09.989Z,84.80
2017-12-24T03:59:37.964Z,84.80
2017-12-24T04:02:05.618Z,84.70
2017-12-24T04:04:33.780Z,85.00
2017-12-24T04:07:01.257Z,84.70
2017-12-24T04:09:29.365Z,84.80
2017-12-24T04:11:56.811Z,84.70
2017-12-24T04:14:24.754Z,84.80
2017-12-24T04:16:52.206Z,84.80
2017-12-24T04:19:19.791Z,85.20
2017-12-24T04:21:47.255Z,85.10
2017-12-24T04:24:15.329Z,85.50
2017-12-24T04:26:44.091Z,85.70
2017-12-24T04:29:12.077Z,85.10
2017-12-24T04:31:40.036Z,85.20
2017-12-24T04:34:07.485Z,85.40
2017-12-24T04:36:35.036Z,85.50
2017-12-24T04:39:04.097Z,86.00
2017-12-24T04:41:31.561Z,85.20
2017-12-24T04:43:59.085Z,85.40
2017-12-24T04:46:27.320Z,86.20
2017-12-24T04:48:54.980Z,85.50
2017-12-24T04:51:22.771Z,85.60
2017-12-24T04:53:51.045Z,86.40
2017-12-24T04:56:19.608Z,86.40
2017-12-24T04:58:47.076Z,85.80
2017-12-24T05:01:14.520Z,85.90
2017-12-24T05:03:42.076Z,85.40
2017-12-24T05:06:09.514Z,85.60
2017-12-24T05:08:36.993Z,85.70
2017-12-24T05:11:05.228Z,85.70
2017-12-24T05:13:32.963Z,85.60
2017-12-24T05:16:00.757Z,85.80
2017-12-24T05:18:28.193Z,85.50
2017-12-24T05:20:55.692Z,86.00
2017-12-24T05:23:23.330Z,85.50
2017-12-24T05:25:51.328Z,85.50
2017-12-24T05:28:18.806Z,85.50
2017-12-24T05:30:46.565Z,85.60
2017-12-24T05:33:14.033Z,85.30
2017-12-24T05:35:42.237Z,85.70
2017-12-24T05:38:09.716Z,85.20
2017-12-24T05:40:37.186Z,85.00
2017-12-24T05:43:05.266Z,85.10
2017-12-24T05:45:33.037Z,85.00
2017-12-24T05:48:00.833Z,84.80
2017-12-24T05:50:29.036Z,85.60
2017-12-24T05:52:57.213Z,84.90
2017-12-24T05:55:24.696Z,84.70
2017-12-24T05:57:52.156Z,84.50
2017-12-24T06:00:19.652Z,85.10
2017-12-24T06:02:47.957Z,85.00
2017-12-24T06:05:15.550Z,84.40
2017-12-24T06:07:42.988Z,84.10
2017-12-24T06:10:10.495Z,85.00
2017-12-24T06:12:38.814Z,84.80
2017-12-24T06:15:06.700Z,84.10
2017-12-24T06:17:34.173Z,84.30
2017-12-24T06:20:02.127Z,84.20
2017-12-24T06:22:29.594Z,84.40
2017-12-24T06:24:57.612Z,84.40
2017-12-24T06:27:25.489Z,84.40
2017-12-24T06:29:53.153Z,84.60
2017-12-24T06:32:21.350Z,84.40
2017-12-24T06:34:49.141Z,84.20
2017-12-24T06:37:17.465Z,83.50
2017-12-24T06:39:44.903Z,84.00
2017-12-24T06:42:12.375Z,82.60
2017-12-24T06:44:39.964Z,82.80
2017-12-24T06:47:08.035Z,82.80
2017-12-24T06:49:35.478Z,82.50
2017-12-24T06:52:02.929Z,82.60
2017-12-24T06:54:30.509Z,82.60
2017-12-24T06:56:57.989Z,82.80
2017-12-24T06:59:26.243Z,83.70
2017-12-24T07:01:53.685Z,84.10
2017-12-24T07:04:21.379Z,84.10
2017-12-24T07:06:49.625Z,83.80
2017-12-24T07:09:17.064Z,84.20
2017-12-24T07:11:44.563Z,83.10
2017-12-24T07:14:12.624Z,84.20
2017-12-24T07:16:40.063Z,83.90
2017-12-24T07:19:07.544Z,83.00
2017-12-24T07:21:35.309Z,84.00
2017-12-24T07:24:02.779Z,84.60
2017-12-24T07:26:31.844Z,85.20
2017-12-24T07:28:59.708Z,83.90
2017-12-24T07:31:27.159Z,84.20
2017-12-24T07:33:54.829Z,84.10
2017-12-24T07:36:22.282Z,83.90
2017-12-24T07:38:49.728Z,84.20
2017-12-24T07:41:17.438Z,84.40
2017-12-24T07:43:46.066Z,84.20
2017-12-24T07:46:13.761Z,84.00
2017-12-24T07:48:41.828Z,84.00
2017-12-24T07:51:09.519Z,84.00
2017-12-24T07:53:37.735Z,85.00
2017-12-24T07:56:05.225Z,84.40
2017-12-24T07:58:32.681Z,84.60
2017-12-24T08:01:00.178Z,85.00
2017-12-24T08:03:27.648Z,84.20
2017-12-24T08:05:55.208Z,84.30
2017-12-24T08:08:22.701Z,84.70
2017-12-24T08:10:50.491Z,84.60
2017-12-24T08:13:17.984Z,84.50
2017-12-24T08:15:45.841Z,84.80
2017-12-24T08:18:13.876Z,84.50
2017-12-24T08:20:41.347Z,84.40
2017-12-24T08:23:10.115Z,84.90
2017-12-24T08:25:38.172Z,84.20
2017-12-24T08:28:06.109Z,84.20
2017-12-24T08:30:33.945Z,84.40
2017-12-24T08:33:01.401Z,84.50
2017-12-24T08:35:29.633Z,85.50
2017-12-24T08:37:57.410Z,84.80
2017-12-24T08:40:24.901Z,84.80
2017-12-24T08:42:53.099Z,85.40
2017-12-24T08:45:20.689Z,84.80
2017-12-24T08:47:48.629Z,85.00
2017-12-24T08:50:16.080Z,85.00
2017-12-24T08:52:43.878Z,85.00
2017-12-24T08:55:11.339Z,85.10
2017-12-24T08:57:40.139Z,85.70
2017-12-24T09:00:07.995Z,85.00
2017-12-24T09:02:36.228Z,86.40
2017-12-24T09:05:03.685Z,85.10
2017-12-24T09:07:31.483Z,85.10
2017-12-24T09:09:59.092Z,85.00
2017-12-24T09:12:26.502Z,84.90
2017-12-24T09:14:54.286Z,84.70
2017-12-24T09:17:21.721Z,84.60
2017-12-24T09:19:49.485Z,85.00
2017-12-24T09:22:16.938Z,84.40
2017-12-24T09:24:45.020Z,84.40
2017-12-24T09:27:12.882Z,84.20
2017-12-24T09:29:40.673Z,84.20
2017-12-24T09:32:08.877Z,84.60
2017-12-24T09:34:36.346Z,83.80
2017-12-24T09:37:03.813Z,83.80
2017-12-24T09:39:31.351Z,83.90
2017-12-24T09:41:59.059Z,83.80
2017-12-24T09:44:26.486Z,84.00
2017-12-24T09:46:54.474Z,84.70
2017-12-24T09:49:22.310Z,83.90
2017-12-24T09:51:49.774Z,83.80
2017-12-24T09:54:17.446Z,83.90
2017-12-24T09:56:45.591Z,83.90
2017-12-24T09:59:13.090Z,84.10
2017-12-24T10:01:40.608Z,84.10
2017-12-24T10:04:08.210Z,84.30
2017-12-24T10:06:35.714Z,84.40
2017-12-24T10:09:03.184Z,84.30
2017-12-24T10:11:30.632Z,84.10
2017-12-24T10:13:58.609Z,84.30
2017-12-24T10:16:26.050Z,84.20
2017-12-24T10:18:53.517Z,84.40
2017-12-24T10:21:20.989Z,84.40
2017-12-24T10:23:48.467Z,84.40
2017-12-24T10:26:16.430Z,84.50
2017-12-24T10:28:43.958Z,84.40
2017-12-24T10:31:11.876Z,84.40
2017-12-24T10:33:39.822Z,84.50
2017-12-24T10:36:07.350Z,84.60
2017-12-24T10:38:34.810Z,84.80
2017-12-24T10:41:02.368Z,85.00
2017-12-24T10:43:29.836Z,85.30
2017-12-24T10:45:57.288Z,85.10
2017-12-24T10:48:25.349Z,85.40
2017-12-24T10:50:53.348Z,85.70
2017-12-24T10:53:20.879Z,85.30
2017-12-24T10:55:48.338Z,86.10
2017-12-24T10:58:15.798Z,86.40
2017-12-24T11:00:43.248Z,86.00
2017-12-24T11:03:10.844Z,86.60
2017-12-24T11:05:39.292Z,86.90
2017-12-24T11:08:06.843Z,87.00
2017-12-24T11:10:34.716Z,87.40
2017-12-24T11:13:02.734Z,87.20
2017-12-24T11:15:30.851Z,87.90
2017-12-24T11:17:58.306Z,87.90
2017-12-24T11:20:25.910Z,87.80
2017-12-24T11:22:53.978Z,87.70
2017-12-24T11:25:21.946Z,87.70
2017-12-24T11:27:50.535Z,87.90
2017-12-24T11:30:18.144Z,88.20
2017-12-24T11:32:45.595Z,88.20
2017-12-24T11:35:13.072Z,88.20
2017-12-24T11:37:40.678Z,88.40
2017-12-24T11:40:08.941Z,89.00
2017-12-24T11:42:36.396Z,88.30
2017-12-24T11:45:03.931Z,88.40
2017-12-24T11:47:32.063Z,88.40
2017-12-24T11:50:00.773Z,88.90
2017-12-24T11:52:28.238Z,88.00
2017-12-24T11:54:55.754Z,88.40
2017-12-24T11:57:24.011Z,89.10
2017-12-24T11:59:51.462Z,88.40
2017-12-24T12:02:18.932Z,88.60
2017-12-24T12:04:47.422Z,90.00
2017-12-24T12:07:15.622Z,89.90
2017-12-24T12:09:43.200Z,89.50
2017-12-24T12:12:11.096Z,89.10
2017-12-24T12:14:39.740Z,89.60
2017-12-24T12:17:07.197Z,89.80
2017-12-24T12:19:34.684Z,89.90
2017-12-24T12:22:02.154Z,90.20
2017-12-24T12:24:30.394Z,90.10
2017-12-24T12:26:58.221Z,90.00
2017-12-24T12:29:26.757Z,90.40
2017-12-24T12:31:55.518Z,90.00
2017-12-24T12:34:23.133Z,90.10
2017-12-24T12:36:50.611Z,90.20
2017-12-24T12:39:18.840Z,90.60
2017-12-24T12:41:46.287Z,90.20
2017-12-24T12:44:13.775Z,90.30
2017-12-24T12:46:41.933Z,90.20
2017-12-24T12:49:09.692Z,90.60
2017-12-24T12:51:37.170Z,90.20
2017-12-24T12:54:04.680Z,90.20
2017-12-24T12:56:32.169Z,90.20
2017-12-24T12:59:00.157Z,90.00
2017-12-24T13:01:28.137Z,90.10
2017-12-24T13:03:56.361Z,90.30
2017-12-24T13:06:23.899Z,90.00
2017-12-24T13:08:51.491Z,90.10
2017-12-24T13:11:19.034Z,90.30
2017-12-24T13:13:47.012Z,90.30
2017-12-24T13:16:14.540Z,90.20
2017-12-24T13:18:42.004Z,90.20
2017-12-24T13:21:09.455Z,90.40
2017-12-24T13:23:36.970Z,90.30
2017-12-24T13:26:04.937Z,90.30
2017-12-24T13:28:32.543Z,90.20
2017-12-24T13:31:00.444Z,90.30
2017-12-24T13:33:28.221Z,90.30
2017-12-24T13:35:55.861Z,90.30
2017-12-24T13:38:23.308Z,90.40
2017-12-24T13:40:50.757Z,90.30
2017-12-24T13:43:18.238Z,90.30
2017-12-24T13:45:45.720Z,90.20
2017-12-24T13:48:13.670Z,90.00
2017-12-24T13:50:41.146Z,90.20
2017-12-24T13:53:09.364Z,90.50
2017-12-24T13:55:37.109Z,90.20
2017-12-24T13:58:04.581Z,90.20
2017-12-24T14:00:32.072Z,90.20
2017-12-24T14:02:59.538Z,90.20
2017-12-24T14:05:27.322Z,90.30
2017-12-24T14:07:55.540Z,90.50
2017-12-24T14:10:23.147Z,90.20
2017-12-24T14:12:50.602Z,90.10
2017-12-24T14:15:18.458Z,90.20
2017-12-24T14:17:45.972Z,90.10
2017-12-24T14:20:13.463Z,90.00
2017-12-24T14:22:41.019Z,90.00
2017-12-24T14:25:09.088Z,90.00
2017-12-24T14:27:37.157Z,90.00
2017-12-24T14:30:05.232Z,90.00
2017-12-24T14:32:32.997Z,90.00
2017-12-24T14:35:01.748Z,90.20
2017-12-24T14:37:29.663Z,90.00
2017-12-24T14:39:57.097Z,90.00
2017-12-24T14:42:24.565Z,89.70
2017-12-24T14:44:52.345Z,89.70
2017-12-24T14:47:20.197Z,89.80
2017-12-24T14:49:47.633Z,90.00
2017-12-24T14:52:15.300Z,89.70
2017-12-24T14:54:42.737Z,89.50
2017-12-24T14:57:10.326Z,89.50
2017-12-24T14:59:37.765Z,89.40
2017-12-24T15:02:05.286Z,89.30
2017-12-24T15:04:32.748Z,89.10
2017-12-24T15:07:00.226Z,89.40
2017-12-24T15:09:27.673Z,89.60
2017-12-24T15:11:55.565Z,89.40
2017-12-24T15:14:23.642Z,89.30
2017-12-24T15:16:51.084Z,89.20
2017-12-24T15:19:18.772Z,89.00
2017-12-24T15:21:46.349Z,89.70
2017-12-24T15:24:14.903Z,89.60
2017-12-24T15:26:42.762Z,89.00
2017-12-24T15:29:11.653Z,89.00
2017-12-24T15:31:39.145Z,89.00
2017-12-24T15:34:07.804Z,89.30
2017-12-24T15:36:35.272Z,88.70
2017-12-24T15:39:02.717Z,88.70
2017-12-24T15:41:30.341Z,88.70
2017-12-24T15:43:57.771Z,88.40
2017-12-24T15:46:26.274Z,88.80
2017-12-24T15:48:54.188Z,88.00
2017-12-24T15:51:21.643Z,87.90
2017-12-24T15:53:49.097Z,87.70
2017-12-24T15:56:16.549Z,87.70
2017-12-24T15:58:44.001Z,87.70
2017-12-24T16:01:11.563Z,87.80
2017-12-24T16:03:38.996Z,87.90
2017-12-24T16:06:06.780Z,87.50
2017-12-24T16:08:34.234Z,87.60
2017-12-24T16:11:01.701Z,87.30
2017-12-24T16:13:29.964Z,87.30
2017-12-24T16:15:57.938Z,87.40
2017-12-24T16:18:25.386Z,87.30
2017-12-24T16:20:52.872Z,87.30
2017-12-24T16:23:20.343Z,87.40
2017-12-24T16:25:48.987Z,87.70
2017-12-24T16:28:16.438Z,87.00
2017-12-24T16:30:45.317Z,87.10
2017-12-24T16:33:12.772Z,87.10
2017-12-24T16:35:40.229Z,87.40
2017-12-24T16:38:08.125Z,87.30
2017-12-24T16:40:35.742Z,87.20
2017-12-24T16:43:03.170Z,87.20
2017-12-24T16:45:32.333Z,87.40
2017-12-24T16:48:00.193Z,86.80
2017-12-24T16:50:28.074Z,87.10
2017-12-24T16:52:55.514Z,87.20
2017-12-24T16:55:23.347Z,87.30
2017-12-24T16:57:50.907Z,87.20
2017-12-24T17:00:18.834Z,87.00
2017-12-24T17:02:46.278Z,86.60
2017-12-24T17:05:13.789Z,86.90
2017-12-24T17:07:41.449Z,86.60
2017-12-24T17:10:08.913Z,86.10
2017-12-24T17:12:36.358Z,86.30
2017-12-24T17:15:05.354Z,86.50
2017-12-24T17:17:32.809Z,86.30
2017-12-24T17:20:00.269Z,86.00
2017-12-24T17:22:27.872Z,86.00
2017-12-24T17:24:56.046Z,85.80
2017-12-24T17:27:23.896Z,84.60
2017-12-24T17:29:51.654Z,85.30
2017-12-24T17:32:19.356Z,85.30
2017-12-24T17:34:46.867Z,85.60
2017-12-24T17:37:14.326Z,85.50
2017-12-24T17:39:41.801Z,85.40
2017-12-24T17:42:09.251Z,85.50
2017-12-24T17:44:36.805Z,85.30
2017-12-24T17:47:05.107Z,85.30
2017-12-24T17:49:33.089Z,85.10
2017-12-24T17:52:00.538Z,85.00
2017-12-24T17:54:28.000Z,85.10
2017-12-24T17:56:56.397Z,85.60
2017-12-24T17:59:23.959Z,85.00
2017-12-24T18:01:51.478Z,85.10
2017-12-24T18:04:18.872Z,84.00
2017-12-24T18:06:46.481Z,84.80
2017-12-24T18:09:13.919Z,84.90
2017-12-24T18:11:41.397Z,85.00
2017-12-24T18:14:09.095Z,85.10
2017-12-24T18:16:37.306Z,85.70
2017-12-24T18:19:04.793Z,84.90
2017-12-24T18:21:32.250Z,84.90
2017-12-24T18:24:00.496Z,85.20
2017-12-24T18:26:28.276Z,84.70
2017-12-24T18:28:56.462Z,84.50
2017-12-24T18:31:24.230Z,84.60
2017-12-24T18:33:51.713Z,84.70
2017-12-24T18:36:20.018Z,84.30
2017-12-24T18:38:47.471Z,84.40
2017-12-24T18:41:15.036Z,84.50
2017-12-24T18:43:42.597Z,84.40
2017-12-24T18:46:10.165Z,84.30
2017-12-24T18:48:38.359Z,84.10
2017-12-24T18:51:05.885Z,84.40
2017-12-24T18:53:33.478Z,84.20
2017-12-24T18:56:01.108Z,84.10
2017-12-24T18:58:28.580Z,84.10
2017-12-24T19:00:56.023Z,84.00
2017-12-24T19:03:23.543Z,84.20
2017-12-24T19:05:51.756Z,85.20
2017-12-24T19:08:19.200Z,84.00
2017-12-24T19:10:47.103Z,83.80
2017-12-24T19:13:14.543Z,83.90
2017-12-24T19:15:42.436Z,84.00
2017-12-24T19:18:09.892Z,83.70
2017-12-24T19:20:37.568Z,83.70
2017-12-24T19:23:05.786Z,84.10
2017-12-24T19:25:33.751Z,83.60
2017-12-24T19:28:02.277Z,83.20
2017-12-24T19:30:31.075Z,83.20
2017-12-24T19:32:58.533Z,83.40
2017-12-24T19:35:27.160Z,84.20
2017-12-24T19:37:54.873Z,83.50
2017-12-24T19:40:22.361Z,83.70
2017-12-24T19:42:49.875Z,83.50
2017-12-24T19:45:17.331Z,83.20
2017-12-24T19:47:45.293Z,83.10
2017-12-24T19:50:13.671Z,82.90
2017-12-24T19:52:41.337Z,82.90
2017-12-24T19:55:08.779Z,82.50
2017-12-24T19:57:36.388Z,82.20
2017-12-24T20:00:04.629Z,82.40
2017-12-24T20:02:32.105Z,81.80
2017-12-24T20:05:00.259Z,82.00
2017-12-24T20:07:27.748Z,82.10
2017-12-24T20:09:55.973Z,82.70
2017-12-24T20:12:23.468Z,82.00
2017-12-24T20:14:52.196Z,82.00
2017-12-24T20:17:20.113Z,81.30
2017-12-24T20:19:47.576Z,81.30
2017-12-24T20:22:15.789Z,81.40
2017-12-24T20:24:43.805Z,80.70
2017-12-24T20:27:11.670Z,80.30
2017-12-24T20:29:39.507Z,80.50
2017-12-24T20:32:06.957Z,81.00
2017-12-24T20:34:35.056Z,81.70
2017-12-24T20:37:02.934Z,81.50
2017-12-24T20:39:31.891Z,82.50
2017-12-24T20:41:59.369Z,81.90
2017-12-24T20:44:26.808Z,82.30
2017-12-24T20:46:54.582Z,82.40
2017-12-24T20:49:22.468Z,82.70
2017-12-24T20:51:49.940Z,83.00
2017-12-24T20:54:18.181Z,83.70
2017-12-24T20:56:45.699Z,83.00
2017-12-24T20:59:13.132Z,83.40
2017-12-24T21:01:41.856Z,84.30
2017-12-24T21:04:09.313Z,83.60
2017-12-24T21:06:36.741Z,84.10
2017-12-24T21:09:05.091Z,85.20
2017-12-24T21:11:32.550Z,84.50
2017-12-24T21:14:00.497Z,85.00
2017-12-24T21:16:27.966Z,84.70
2017-12-24T21:18:55.399Z,84.80
2017-12-24T21:21:22.879Z,85.00
2017-12-24T21:23:50.352Z,85.20
2017-12-24T21:26:18.146Z,84.70
2017-12-24T21:28:46.294Z,84.80
2017-12-24T21:31:14.822Z,85.60
2017-12-24T21:33:42.297Z,84.30
2017-12-24T21:36:10.104Z,84.60
2017-12-24T21:38:38.341Z,85.30
2017-12-24T21:41:05.885Z,84.70
2017-12-24T21:43:33.424Z,84.60
2017-12-24T21:46:00.947Z,85.30
2017-12-24T21:48:28.855Z,84.50
2017-12-24T21:50:56.824Z,84.50
2017-12-24T21:53:24.439Z,84.30
2017-12-24T21:55:52.698Z,85.00
2017-12-24T21:58:20.397Z,84.40
2017-12-24T22:00:47.910Z,84.50
2017-12-24T22:03:15.372Z,84.30
2017-12-24T22:05:43.478Z,84.60
2017-12-24T22:08:11.780Z,85.40
2017-12-24T22:10:39.297Z,84.80
2017-12-24T22:13:07.579Z,85.30
2017-12-24T22:15:36.371Z,85.20
2017-12-24T22:18:04.608Z,85.30
2017-12-24T22:20:32.254Z,84.70
2017-12-24T22:22:59.939Z,85.00
2017-12-24T22:25:27.770Z,84.40
2017-12-24T22:27:55.694Z,84.20
2017-12-24T22:30:24.385Z,84.30
2017-12-24T22:32:52.602Z,83.90
2017-12-24T22:35:20.809Z,83.40
2017-12-24T22:37:49.076Z,83.50
2017-12-24T22:40:16.597Z,83.70
2017-12-24T22:42:44.063Z,82.60
2017-12-24T22:45:11.506Z,82.40
2017-12-24T22:47:39.432Z,81.80
2017-12-24T22:50:06.922Z,82.20
2017-12-24T22:52:34.418Z,82.20
2017-12-24T22:55:01.951Z,82.30
2017-12-24T22:57:29.382Z,81.80
2017-12-24T22:59:57.312Z,81.80
2017-12-24T23:02:24.946Z,81.10
2017-12-24T23:04:52.488Z,81.20
2017-12-24T23:07:19.983Z,80.70
2017-12-24T23:09:47.534Z,80.40
2017-12-24T23:12:14.961Z,80.40
2017-12-24T23:14:43.034Z,80.50
2017-12-24T23:17:10.524Z,80.50
2017-12-24T23:19:38.010Z,79.60
2017-12-24T23:22:06.322Z,80.70
2017-12-24T23:24:34.394Z,79.90
2017-12-24T23:27:02.057Z,79.60
2017-12-24T23:29:29.978Z,79.80
2017-12-24T23:31:57.444Z,79.70
2017-12-24T23:34:25.653Z,80.30
2017-12-24T23:36:53.653Z,79.70
2017-12-24T23:39:21.123Z,79.60
2017-12-24T23:41:49.353Z,80.50
2017-12-24T23:44:16.822Z,79.90
2017-12-24T23:46:44.366Z,79.70
2017-12-24T23:49:12.076Z,79.30
2017-12-24T23:51:39.541Z,79.20
2017-12-24T23:54:07.586Z,79.10
2017-12-24T23:56:35.036Z,78.90
2017-12-24T23:59:02.506Z,79.00
